Time;durP1;ratioP1;P1;durP2;ratioP2;P2;SDS_P1;SDS_P2;PMS_P1;PMS_P2;Temp;Humidity;BMP_temperature;BMP_pressure;BME280_temperature;BME280_humidity;BME280_pressure;Samples;Min_cycle;Max_cycle;Signal;HPM_P1;HPM_P2
2022/09/06 00:00:29;;;;;;;0.50;0.50;;;28.00;53.90;;;;;;10487367;28;20479;-33
2022/09/06 00:05:32;;;;;;;0.82;0.50;;;28.00;53.90;;;;;;10489049;28;20040;-33
2022/09/06 00:10:34;;;;;;;1.42;1.08;;;28.00;54.00;;;;;;10489659;28;20072;-33
2022/09/06 00:15:38;;;;;;;1.92;0.95;;;27.90;53.80;;;;;;10500088;28;20742;-33
2022/09/06 00:20:40;;;;;;;2.50;0.80;;;28.60;54.30;;;;;;10502031;28;20079;-34
2022/09/06 00:25:42;;;;;;;1.90;1.05;;;27.80;53.90;;;;;;10482767;28;20045;-33
2022/09/06 00:30:46;;;;;;;1.33;1.10;;;27.70;54.00;;;;;;10484833;28;20135;-33
2022/09/06 00:35:48;;;;;;;1.40;1.00;;;27.70;54.00;;;;;;10491490;28;20067;-33
2022/09/06 00:40:49;;;;;;;1.58;0.85;;;27.60;54.00;;;;;;10478650;28;20553;-34
2022/09/06 00:45:54;;;;;;;2.10;0.85;;;27.70;53.90;;;;;;10473175;28;20044;-33
2022/09/06 00:50:59;;;;;;;0.90;0.60;;;27.70;53.90;;;;;;10486850;28;20048;-33
2022/09/06 00:56:02;;;;;;;1.27;0.70;;;27.70;53.90;;;;;;10487779;28;20131;-33
2022/09/06 01:01:06;;;;;;;1.33;0.68;;;27.70;54.00;;;;;;10476686;28;20148;-33
2022/09/06 01:06:18;;;;;;;1.58;0.70;;;27.70;54.10;;;;;;10493497;28;20064;-34
2022/09/06 01:11:48;;;;;;;1.10;0.63;;;27.70;54.10;;;;;;10483186;28;20051;-33
2022/09/06 01:16:58;;;;;;;2.28;0.82;;;27.60;54.10;;;;;;10466230;28;20163;-33
2022/09/06 01:22:14;;;;;;;1.93;1.00;;;27.60;54.20;;;;;;10478560;28;20171;-34
2022/09/06 01:27:52;;;;;;;1.75;1.10;;;27.60;54.30;;;;;;10483831;28;20132;-33
2022/09/06 01:33:01;;;;;;;1.27;0.70;;;27.60;54.40;;;;;;10486778;28;20139;-34
2022/09/06 01:38:04;;;;;;;1.88;0.68;;;27.50;54.30;;;;;;10488335;28;20087;-33
2022/09/06 01:43:09;;;;;;;0.70;0.55;;;27.50;54.50;;;;;;10489732;28;20075;-33
2022/09/06 01:48:21;;;;;;;1.17;0.70;;;28.30;54.90;;;;;;10458069;28;20079;-33
2022/09/06 01:53:31;;;;;;;;;;;27.50;54.40;;;;;;10423991;28;20756;-33
2022/09/06 01:58:51;;;;;;;0.98;0.85;;;27.50;54.50;;;;;;10443637;28;19924;-33
2022/09/06 02:04:02;;;;;;;0.47;0.45;;;27.40;54.30;;;;;;10442518;28;20112;-34
2022/09/06 02:09:08;;;;;;;0.95;0.60;;;27.40;55.00;;;;;;10439644;28;20045;-32
2022/09/06 02:14:16;;;;;;;2.72;0.40;;;27.30;54.40;;;;;;10449816;28;20047;-33
2022/09/06 02:19:24;;;;;;;1.00;0.57;;;27.30;54.30;;;;;;10446606;28;20040;-33
2022/09/06 02:24:30;;;;;;;0.82;0.55;;;27.40;54.40;;;;;;10445732;28;20131;-33
2022/09/06 02:29:32;;;;;;;2.65;0.60;;;27.30;54.30;;;;;;10444427;28;20526;-33
2022/09/06 02:34:37;;;;;;;1.80;0.65;;;27.30;54.50;;;;;;10436853;28;20135;-32
2022/09/06 02:39:39;;;;;;;1.33;0.50;;;27.30;54.50;;;;;;10432917;28;20469;-34
2022/09/06 02:44:41;;;;;;;0.70;0.70;;;27.20;54.40;;;;;;10447147;28;20147;-34
2022/09/06 02:49:44;;;;;;;1.08;0.70;;;27.40;54.60;;;;;;10463469;28;20460;-33
2022/09/06 02:54:46;;;;;;;1.05;0.73;;;27.20;54.50;;;;;;10442666;28;20141;-34
2022/09/06 02:59:48;;;;;;;0.88;0.60;;;27.20;54.40;;;;;;10446160;28;20051;-32
2022/09/06 03:04:51;;;;;;;0.85;0.65;;;27.20;54.50;;;;;;10441211;28;20063;-33
2022/09/06 03:09:52;;;;;;;0.80;0.65;;;27.20;54.50;;;;;;10444617;28;20135;-33
2022/09/06 03:14:55;;;;;;;0.90;0.73;;;27.10;54.50;;;;;;10432057;28;20136;-34
2022/09/06 03:19:58;;;;;;;1.02;0.90;;;27.10;54.50;;;;;;10450081;28;20073;-33
2022/09/06 03:25:00;;;;;;;2.20;0.90;;;27.00;54.40;;;;;;10442765;28;20144;-34
2022/09/06 03:30:01;;;;;;;0.90;0.80;;;27.00;54.50;;;;;;10429919;28;20128;-32
2022/09/06 03:35:06;;;;;;;1.13;0.68;;;27.00;54.50;;;;;;10424667;28;20104;-34
2022/09/06 03:40:10;;;;;;;1.67;1.08;;;27.00;54.50;;;;;;10454542;28;20044;-33
2022/09/06 03:45:12;;;;;;;0.93;0.82;;;26.90;54.50;;;;;;10450739;28;20055;-34
2022/09/06 03:50:15;;;;;;;1.80;0.70;;;26.90;54.50;;;;;;10433032;28;20049;-34
2022/09/06 03:55:17;;;;;;;1.40;1.10;;;26.90;54.60;;;;;;10424775;28;20129;-33
2022/09/06 04:00:19;;;;;;;2.80;1.00;;;26.90;54.60;;;;;;10455849;28;20139;-33
2022/09/06 04:05:22;;;;;;;3.75;1.55;;;26.90;54.60;;;;;;10437051;28;20079;-33
2022/09/06 04:10:24;;;;;;;1.38;0.90;;;26.60;55.00;;;;;;10409275;28;20052;-33
2022/09/06 04:15:26;;;;;;;1.98;1.27;;;27.70;55.40;;;;;;10428688;28;20049;-34
2022/09/06 04:20:29;;;;;;;1.23;0.88;;;26.90;54.80;;;;;;10422412;28;20045;-34
2022/09/06 04:25:31;;;;;;;1.40;1.10;;;26.80;54.80;;;;;;10413000;28;20049;-33
2022/09/06 04:30:33;;;;;;;1.17;0.90;;;26.80;54.80;;;;;;10423403;28;20073;-34
2022/09/06 04:35:36;;;;;;;2.30;1.40;;;26.80;54.80;;;;;;10421031;28;20055;-33
2022/09/06 04:40:38;;;;;;;5.57;1.00;;;26.80;55.50;;;;;;10426389;28;20140;-33
2022/09/06 04:45:40;;;;;;;3.72;1.00;;;26.80;55.00;;;;;;10429752;28;20141;-33
2022/09/06 04:50:43;;;;;;;3.30;0.95;;;26.80;55.20;;;;;;10430532;28;20496;-34
2022/09/06 04:55:45;;;;;;;3.08;1.23;;;27.20;55.50;;;;;;10448026;28;20080;-34
2022/09/06 05:00:47;;;;;;;2.38;1.40;;;26.80;55.40;;;;;;10421440;28;20100;-33
2022/09/06 05:05:50;;;;;;;3.78;1.65;;;26.70;55.50;;;;;;10411329;28;20481;-34
2022/09/06 05:10:52;;;;;;;3.92;2.20;;;27.00;56.00;;;;;;10440737;28;20495;-33
2022/09/06 05:15:54;;;;;;;5.80;3.10;;;26.70;55.80;;;;;;10425187;28;20045;-33
2022/09/06 05:20:57;;;;;;;13.23;4.53;;;26.60;55.90;;;;;;10433258;28;20037;-34
2022/09/06 05:25:59;;;;;;;4.10;2.22;;;26.70;56.10;;;;;;10441638;28;20053;-33
2022/09/06 05:31:09;;;;;;;4.25;2.67;;;27.50;56.90;;;;;;10444191;28;20072;-34
2022/09/06 05:36:12;;;;;;;5.97;1.67;;;26.60;56.30;;;;;;10442973;28;20047;-34
2022/09/06 05:41:14;;;;;;;1.52;1.38;;;26.60;56.30;;;;;;10439214;28;20073;-33
2022/09/06 05:46:16;;;;;;;4.97;1.40;;;26.60;56.30;;;;;;10434884;28;20140;-34
2022/09/06 05:51:20;;;;;;;3.25;1.50;;;26.60;56.30;;;;;;10443769;28;20045;-34
2022/09/06 05:56:22;;;;;;;3.33;1.63;;;26.80;56.30;;;;;;10443836;28;20386;-36
2022/09/06 06:01:25;;;;;;;2.47;1.60;;;26.60;56.10;;;;;;10440807;28;20045;-33
2022/09/06 06:06:31;;;;;;;1.40;1.30;;;26.70;56.00;;;;;;10446403;28;20084;-34
2022/09/06 06:11:33;;;;;;;6.32;3.33;;;26.70;55.90;;;;;;10439420;28;20627;-34
2022/09/06 06:16:35;;;;;;;8.15;4.60;;;26.70;55.70;;;;;;10438710;28;20657;-34
2022/09/06 06:21:38;;;;;;;4.82;2.97;;;26.80;55.80;;;;;;10443161;28;20128;-34
2022/09/06 06:26:40;;;;;;;5.68;2.35;;;26.70;55.70;;;;;;10432939;28;20128;-33
2022/09/06 06:31:42;;;;;;;2.20;1.50;;;26.70;55.70;;;;;;10432279;28;20049;-34
2022/09/06 06:36:45;;;;;;;2.53;1.42;;;26.70;55.70;;;;;;10439779;28;20107;-33
2022/09/06 06:41:49;;;;;;;3.92;1.50;;;26.70;55.70;;;;;;10448384;28;20051;-34
2022/09/06 06:46:51;;;;;;;4.10;2.35;;;26.70;55.60;;;;;;10441517;28;20045;-34
2022/09/06 06:51:54;;;;;;;4.50;2.60;;;27.50;56.10;;;;;;10404404;28;20050;-32
2022/09/06 06:56:56;;;;;;;6.55;3.85;;;26.70;55.60;;;;;;10397945;28;20065;-35
2022/09/06 07:01:58;;;;;;;7.78;5.13;;;26.70;55.40;;;;;;10409412;28;20056;-33
2022/09/06 07:07:01;;;;;;;7.25;4.78;;;26.40;55.00;;;;;;10400915;28;20128;-34
2022/09/06 07:12:03;;;;;;;8.27;5.13;;;26.70;55.10;;;;;;10389163;28;20081;-34
2022/09/06 07:17:05;;;;;;;12.27;5.07;;;26.70;54.90;;;;;;10401043;28;20128;-35
2022/09/06 07:22:08;;;;;;;5.25;3.50;;;26.60;54.60;;;;;;10400188;28;20049;-34
2022/09/06 07:27:10;;;;;;;6.80;2.75;;;26.70;54.30;;;;;;10391375;28;20076;-33
2022/09/06 07:32:12;;;;;;;4.85;2.53;;;26.70;54.30;;;;;;10398084;28;20077;-34
2022/09/06 07:37:15;;;;;;;4.80;2.50;;;26.70;54.10;;;;;;10398812;28;20490;-33
2022/09/06 07:42:17;;;;;;;4.72;2.40;;;26.90;53.90;;;;;;10399400;28;20136;-34
2022/09/06 07:47:19;;;;;;;5.90;2.45;;;26.70;54.00;;;;;;10408345;28;20063;-33
2022/09/06 07:52:26;;;;;;;2.75;1.88;;;26.70;53.90;;;;;;10450237;28;20132;-34
2022/09/06 07:57:27;;;;;;;3.80;1.70;;;26.70;53.90;;;;;;10463837;28;20546;-33
2022/09/06 08:02:30;;;;;;;2.60;1.58;;;26.70;53.70;;;;;;10467720;28;20130;-35
2022/09/06 08:07:33;;;;;;;1.73;1.20;;;26.70;54.00;;;;;;10462137;28;20036;-34
2022/09/06 08:12:35;;;;;;;4.47;1.42;;;26.90;54.10;;;;;;10447152;28;20041;-35
2022/09/06 08:17:37;;;;;;;2.22;1.30;;;26.70;54.10;;;;;;10432455;28;20037;-34
2022/09/06 08:22:40;;;;;;;3.03;1.50;;;26.80;54.00;;;;;;10430079;28;20072;-33
2022/09/06 08:27:42;;;;;;;2.33;1.30;;;26.80;54.00;;;;;;10447515;28;20123;-34
2022/09/06 08:32:44;;;;;;;4.30;1.65;;;26.90;54.00;;;;;;10445498;28;20050;-33
2022/09/06 08:37:47;;;;;;;2.03;1.30;;;26.80;54.10;;;;;;10452165;28;20046;-35
2022/09/06 08:42:49;;;;;;;2.42;1.38;;;26.90;54.10;;;;;;10442470;28;20429;-35
2022/09/06 08:47:51;;;;;;;1.63;1.30;;;27.10;53.80;;;;;;10452249;28;20447;-34
2022/09/06 08:53:02;;;;;;;2.38;1.30;;;26.70;54.30;;;;;;10452238;28;20049;-34
2022/09/06 08:58:14;;;;;;;2.43;1.57;;;27.10;53.80;;;;;;10430229;28;20108;-33
2022/09/06 09:03:19;;;;;;;5.25;2.05;;;27.20;53.30;;;;;;10444187;28;20508;-33
2022/09/06 09:08:27;;;;;;;2.03;1.52;;;27.10;53.30;;;;;;10460022;28;20438;-34
2022/09/06 09:13:35;;;;;;;5.18;1.70;;;27.50;52.50;;;;;;10459814;28;20528;-34
2022/09/06 09:18:39;;;;;;;4.28;2.25;;;27.40;53.10;;;;;;10457195;28;20422;-35
2022/09/06 09:23:53;;;;;;;6.00;1.70;;;26.40;54.90;;;;;;10437835;28;20182;-35
2022/09/06 09:29:07;;;;;;;3.00;1.70;;;26.50;54.70;;;;;;10455590;28;20072;-33
2022/09/06 09:34:11;;;;;;;3.65;2.63;;;27.10;54.50;;;;;;10442431;28;20049;-34
2022/09/06 09:39:14;;;;;;;2.05;1.50;;;26.60;54.70;;;;;;10456940;28;20079;-34
2022/09/06 09:44:18;;;;;;;2.47;1.35;;;26.30;55.50;;;;;;10449962;28;20049;-32
2022/09/06 09:49:29;;;;;;;10.43;4.10;;;26.90;54.10;;;;;;10415184;28;20148;-33
2022/09/06 09:54:36;;;;;;;3.03;2.40;;;26.10;56.70;;;;;;10405521;28;20080;-34
2022/09/06 09:59:42;;;;;;;2.55;1.73;;;26.00;56.90;;;;;;10400801;28;20041;-33
2022/09/06 10:04:46;;;;;;;4.80;3.33;;;25.90;56.80;;;;;;10399445;28;20144;-33
2022/09/06 10:09:57;;;;;;;7.93;3.35;;;25.80;58.40;;;;;;10402772;28;20049;-33
2022/09/06 10:14:59;;;;;;;2.42;2.20;;;25.60;59.80;;;;;;10393329;28;20053;-34
2022/09/06 10:20:06;;;;;;;4.95;3.28;;;25.20;62.00;;;;;;10401276;28;20149;-34
2022/09/06 10:25:38;;;;;;;6.57;5.32;;;24.70;63.10;;;;;;10408268;28;20214;-33
2022/09/06 10:30:47;;;;;;;6.68;5.13;;;24.90;63.70;;;;;;10414411;28;20059;-32
2022/09/06 10:35:48;;;;;;;6.82;5.70;;;24.50;64.30;;;;;;10416661;28;20128;-33
2022/09/06 10:41:03;;;;;;;7.13;3.63;;;25.70;63.90;;;;;;10420522;28;20120;-34
2022/09/06 10:46:11;;;;;;;5.85;3.92;;;25.70;59.30;;;;;;10425285;28;20053;-33
2022/09/06 10:51:21;;;;;;;10.38;3.85;;;25.10;61.60;;;;;;10443561;28;20055;-32
2022/09/06 10:56:32;;;;;;;7.57;3.00;;;25.50;62.80;;;;;;10446581;28;20048;-34
2022/09/06 11:01:41;;;;;;;10.95;3.40;;;25.20;62.70;;;;;;10445728;28;20143;-35
2022/09/06 11:06:45;;;;;;;4.75;2.70;;;24.80;65.30;;;;;;10446239;28;20071;-34
2022/09/06 11:11:58;;;;;;;10.90;3.65;;;24.90;64.00;;;;;;10444550;28;20136;-34
2022/09/06 11:17:04;;;;;;;7.78;2.70;;;24.70;66.40;;;;;;10453235;28;20155;-34
2022/09/06 11:22:35;;;;;;;4.10;2.28;;;25.80;63.50;;;;;;10448509;28;20045;-34
2022/09/06 11:27:41;;;;;;;8.27;2.65;;;24.90;63.40;;;;;;10442305;28;20041;-35
2022/09/06 11:32:47;;;;;;;9.05;3.42;;;25.20;62.60;;;;;;10444095;28;20055;-31
2022/09/06 11:37:59;;;;;;;5.70;1.75;;;25.60;63.40;;;;;;10441383;28;20042;-33
2022/09/06 11:43:38;;;;;;;10.13;2.83;;;25.80;61.10;;;;;;10443767;28;20166;-34
2022/09/06 11:48:59;;;;;;;9.48;2.60;;;26.10;60.80;;;;;;10433224;28;20052;-33
2022/09/06 11:54:06;;;;;;;6.53;2.33;;;25.70;62.00;;;;;;10427931;28;20041;-33
2022/09/06 11:59:22;;;;;;;2.53;1.27;;;26.10;61.70;;;;;;10434056;28;20072;-33
2022/09/06 12:04:24;;;;;;;4.05;1.65;;;26.60;58.80;;;;;;10431850;28;20048;-31
2022/09/06 12:09:28;;;;;;;11.43;2.88;;;26.80;58.20;;;;;;10435660;28;20124;-33
2022/09/06 12:14:35;;;;;;;10.05;2.78;;;26.40;60.90;;;;;;10441230;28;20993;-34
2022/09/06 12:19:46;;;;;;;8.02;1.45;;;26.00;62.30;;;;;;10434918;28;20055;-34
2022/09/06 12:24:54;;;;;;;8.90;2.13;;;26.90;58.10;;;;;;10445815;28;20550;-34
2022/09/06 12:30:00;;;;;;;3.90;1.45;;;26.80;59.80;;;;;;10437995;28;20116;-34
2022/09/06 12:35:04;;;;;;;3.20;1.30;;;26.70;58.60;;;;;;10435109;28;20045;-33
2022/09/06 12:40:07;;;;;;;6.45;2.15;;;26.90;57.80;;;;;;10451353;28;20041;-34
2022/09/06 12:45:11;;;;;;;4.13;1.10;;;27.20;58.50;;;;;;10396862;28;1074986;-33
2022/09/06 12:50:17;;;;;;;4.60;1.23;;;27.10;58.40;;;;;;10442485;28;20056;-33
2022/09/06 12:55:23;;;;;;;6.50;1.75;;;27.80;55.60;;;;;;10447088;28;20128;-33
2022/09/06 13:00:31;;;;;;;8.52;1.70;;;27.60;56.40;;;;;;10434866;28;20049;-34
2022/09/06 13:05:33;;;;;;;8.50;2.03;;;27.80;56.30;;;;;;10433121;28;20099;-32
2022/09/06 13:10:37;;;;;;;5.00;1.30;;;27.20;57.50;;;;;;10441532;28;20506;-33
2022/09/06 13:15:46;;;;;;;6.95;2.00;;;27.40;57.10;;;;;;10436142;28;20103;-33
2022/09/06 13:20:58;;;;;;;5.40;1.65;;;27.70;56.60;;;;;;10443204;28;20045;-33
2022/09/06 13:26:00;;;;;;;4.75;1.08;;;27.50;57.20;;;;;;10438163;28;20084;-33
2022/09/06 13:31:09;;;;;;;5.25;1.58;;;28.00;55.50;;;;;;10447737;28;20132;-33
2022/09/06 13:36:22;;;;;;;4.65;1.52;;;27.60;56.50;;;;;;10444552;28;21770;-33
2022/09/06 13:41:42;;;;;;;6.35;1.50;;;27.60;56.30;;;;;;10431997;28;20072;-33
2022/09/06 13:46:46;;;;;;;5.30;1.35;;;28.20;55.40;;;;;;10451060;28;20067;-32
2022/09/06 13:51:48;;;;;;;2.58;1.10;;;28.40;54.80;;;;;;10438880;28;20056;-32
2022/09/06 13:56:50;;;;;;;4.20;1.30;;;27.80;56.40;;;;;;10453847;28;20095;-34
2022/09/06 14:01:59;;;;;;;2.72;1.00;;;28.70;54.60;;;;;;10448880;28;20087;-34
2022/09/06 14:07:01;;;;;;;2.10;1.00;;;29.10;53.30;;;;;;10451414;28;20064;-34
2022/09/06 14:12:05;;;;;;;2.50;1.05;;;29.40;53.00;;;;;;10445748;28;20144;-34
2022/09/06 14:17:08;;;;;;;11.32;1.23;;;29.60;51.80;;;;;;10452925;28;20041;-35
2022/09/06 14:22:10;;;;;;;1.40;0.73;;;29.30;50.30;;;;;;10446770;28;20049;-34
2022/09/06 14:27:12;;;;;;;1.08;0.90;;;29.80;51.70;;;;;;10451894;28;20153;-34
2022/09/06 14:32:15;;;;;;;1.15;0.82;;;30.10;51.30;;;;;;10445695;28;20060;-34
2022/09/06 14:37:17;;;;;;;6.82;1.55;;;30.00;52.50;;;;;;10443507;28;20064;-33
2022/09/06 14:42:23;;;;;;;3.75;1.10;;;32.00;50.90;;;;;;10458478;28;20405;-33
2022/09/06 14:47:27;;;;;;;2.40;0.98;;;31.10;47.00;;;;;;10446055;28;20473;-34
2022/09/06 14:52:28;;;;;;;3.15;1.17;;;31.00;51.10;;;;;;10452165;28;20593;-33
2022/09/06 14:57:30;;;;;;;2.80;0.73;;;30.90;51.10;;;;;;10453722;28;20041;-34
2022/09/06 15:02:34;;;;;;;1.27;0.90;;;31.00;51.00;;;;;;10441336;28;20053;-35
2022/09/06 15:07:36;;;;;;;1.92;0.70;;;30.50;51.20;;;;;;10438613;28;20040;-30
2022/09/06 15:12:38;;;;;;;6.82;1.20;;;30.40;51.40;;;;;;10451946;28;20045;-33
2022/09/06 15:17:41;;;;;;;1.60;0.50;;;30.50;49.60;;;;;;10448669;28;20040;-34
2022/09/06 15:22:43;;;;;;;1.10;0.60;;;30.40;51.60;;;;;;10434490;28;20060;-34
2022/09/06 15:27:45;;;;;;;1.35;0.80;;;30.40;51.30;;;;;;10442741;28;20485;-35
2022/09/06 15:32:48;;;;;;;1.13;0.55;;;30.50;51.20;;;;;;10426614;28;20137;-34
2022/09/06 15:37:50;;;;;;;2.33;0.70;;;30.50;51.10;;;;;;10430662;28;20080;-33
2022/09/06 15:42:52;;;;;;;0.82;0.40;;;30.70;51.00;;;;;;10457403;28;20067;-36
2022/09/06 15:47:56;;;;;;;1.33;0.60;;;30.60;51.10;;;;;;10443042;28;20132;-33
2022/09/06 15:52:57;;;;;;;1.83;0.60;;;30.60;51.10;;;;;;10441173;28;20530;-34
2022/09/06 15:57:59;;;;;;;1.92;0.70;;;30.60;51.00;;;;;;10442686;28;20044;-35
2022/09/06 16:03:02;;;;;;;0.88;0.55;;;30.70;51.00;;;;;;10441564;28;20488;-35
2022/09/06 16:08:04;;;;;;;1.38;0.75;;;30.70;51.10;;;;;;10445986;28;20052;-33
2022/09/06 16:13:06;;;;;;;2.60;0.80;;;30.60;51.00;;;;;;10446715;28;20067;-35
2022/09/06 16:18:09;;;;;;;1.85;0.88;;;30.50;51.10;;;;;;10443959;28;20044;-34
2022/09/06 16:23:11;;;;;;;6.28;0.80;;;30.60;51.00;;;;;;10443958;28;20555;-34
2022/09/06 16:28:13;;;;;;;3.08;0.55;;;30.60;51.00;;;;;;10447670;28;20048;-35
2022/09/06 16:33:16;;;;;;;0.85;0.70;;;30.50;51.10;;;;;;10432184;28;20041;-33
2022/09/06 16:38:18;;;;;;;3.42;1.33;;;30.50;51.10;;;;;;10443435;28;20696;-34
2022/09/06 16:43:20;;;;;;;2.92;1.02;;;30.50;51.20;;;;;;10445431;28;20064;-34
2022/09/06 16:48:23;;;;;;;1.42;0.70;;;30.50;51.10;;;;;;10452447;28;20053;-33
2022/09/06 16:53:25;;;;;;;3.35;0.90;;;30.50;51.10;;;;;;10448472;28;20060;-35
2022/09/06 16:58:28;;;;;;;3.85;2.00;;;30.40;51.00;;;;;;10438224;28;20127;-35
2022/09/06 17:03:31;;;;;;;2.45;1.23;;;30.30;51.00;;;;;;10439288;28;20136;-33
2022/09/06 17:08:35;;;;;;;6.97;1.45;;;30.30;51.00;;;;;;10441253;28;20477;-35
2022/09/06 17:13:37;;;;;;;6.07;1.65;;;30.30;51.00;;;;;;10449138;28;20193;-34
2022/09/06 17:18:41;;;;;;;2.60;1.58;;;30.20;50.60;;;;;;10441722;28;20128;-33
2022/09/06 17:23:42;;;;;;;3.08;2.08;;;30.20;50.50;;;;;;10451592;28;20080;-35
2022/09/06 17:28:44;;;;;;;3.80;1.60;;;30.10;50.50;;;;;;10443054;28;20458;-33
2022/09/06 17:33:47;;;;;;;3.83;1.75;;;30.10;50.60;;;;;;10440518;28;20714;-33
2022/09/06 17:38:50;;;;;;;6.13;1.90;;;30.10;50.90;;;;;;10448186;28;20072;-34
2022/09/06 17:43:52;;;;;;;4.47;1.38;;;30.00;50.80;;;;;;10442617;28;20059;-34
2022/09/06 17:48:56;;;;;;;2.40;1.20;;;30.00;50.80;;;;;;10444552;28;20498;-34
2022/09/06 17:53:58;;;;;;;4.63;1.27;;;30.00;51.10;;;;;;10446208;28;20680;-34
2022/09/06 17:59:04;;;;;;;3.25;1.13;;;30.00;51.40;;;;;;10440797;28;20045;-34
2022/09/06 18:04:08;;;;;;;2.25;0.93;;;29.90;51.30;;;;;;10445651;28;20049;-35
2022/09/06 18:09:13;;;;;;;5.45;1.17;;;30.00;51.60;;;;;;10445748;28;21611;-36
2022/09/06 18:14:19;;;;;;;5.60;1.30;;;30.10;51.90;;;;;;10442805;28;20041;-35
2022/09/06 18:19:22;;;;;;;9.00;1.45;;;29.90;52.00;;;;;;10442009;28;20045;-34
2022/09/06 18:24:24;;;;;;;3.33;1.38;;;29.90;52.10;;;;;;10434279;28;20057;-36
2022/09/06 18:29:26;;;;;;;2.35;1.20;;;29.80;52.20;;;;;;10441121;28;20069;-34
2022/09/06 18:34:30;;;;;;;1.67;0.85;;;29.90;52.50;;;;;;10446323;28;20073;-35
2022/09/06 18:39:31;;;;;;;2.35;1.17;;;29.50;52.30;;;;;;10427999;28;20096;-36
2022/09/06 18:44:34;;;;;;;4.38;1.40;;;29.80;52.70;;;;;;10433911;28;20049;-36
2022/09/06 18:49:38;;;;;;;4.18;1.77;;;29.80;52.80;;;;;;10444280;28;20055;-35
2022/09/06 18:54:40;;;;;;;2.10;1.20;;;29.70;52.70;;;;;;10440323;28;20068;-35
2022/09/06 18:59:41;;;;;;;2.17;1.20;;;29.80;52.80;;;;;;10445764;28;20123;-35
2022/09/06 19:04:45;;;;;;;5.30;1.42;;;29.70;52.70;;;;;;10446232;28;20053;-34
2022/09/06 19:09:46;;;;;;;2.80;1.20;;;29.60;52.60;;;;;;10437862;28;20044;-34
2022/09/06 19:14:48;;;;;;;6.13;1.58;;;29.60;52.60;;;;;;10429152;28;20084;-34
2022/09/06 19:19:51;;;;;;;7.97;1.55;;;29.60;52.70;;;;;;10433351;28;20052;-34
2022/09/06 19:24:53;;;;;;;5.97;1.45;;;29.60;52.90;;;;;;10443661;28;20065;-32
2022/09/06 19:29:56;;;;;;;9.73;1.80;;;29.60;52.90;;;;;;10434700;28;20114;-34
2022/09/06 19:35:00;;;;;;;7.20;1.63;;;29.50;53.00;;;;;;10443798;28;20049;-35
2022/09/06 19:40:02;;;;;;;9.30;1.83;;;29.50;53.00;;;;;;10434932;28;20168;-34
2022/09/06 19:45:05;;;;;;;9.20;1.50;;;29.50;53.10;;;;;;10419794;28;20238;-33
2022/09/06 19:50:08;;;;;;;5.60;2.47;;;29.50;53.10;;;;;;10426668;28;20160;-34
2022/09/06 19:55:10;;;;;;;10.27;2.28;;;29.50;53.10;;;;;;10424804;28;20119;-34
2022/09/06 20:00:14;;;;;;;7.82;1.70;;;29.40;53.10;;;;;;10419957;28;20133;-34
2022/09/06 20:05:17;;;;;;;11.18;2.35;;;29.40;53.10;;;;;;10436607;28;20088;-34
2022/09/06 20:10:19;;;;;;;8.05;1.83;;;29.30;53.10;;;;;;10430541;28;20049;-35
2022/09/06 20:15:21;;;;;;;6.70;1.77;;;29.30;53.20;;;;;;10446948;28;20059;-32
2022/09/06 20:20:24;;;;;;;9.98;2.15;;;29.30;53.20;;;;;;10446464;28;20477;-35
2022/09/06 20:25:26;;;;;;;8.38;2.33;;;29.30;53.20;;;;;;10448775;28;20041;-35
2022/09/06 20:30:30;;;;;;;9.90;1.98;;;29.20;53.20;;;;;;10449883;28;20155;-35
2022/09/06 20:35:33;;;;;;;4.72;1.35;;;29.50;53.50;;;;;;10453701;28;20474;-35
2022/09/06 20:40:35;;;;;;;8.07;1.88;;;29.20;53.40;;;;;;10446603;28;20124;-34
2022/09/06 20:45:37;;;;;;;5.68;1.67;;;29.10;53.50;;;;;;10441615;28;20566;-35
2022/09/06 20:50:40;;;;;;;4.20;1.00;;;29.10;53.50;;;;;;10447750;28;20038;-34
2022/09/06 20:55:43;;;;;;;5.90;1.73;;;28.80;54.10;;;;;;10453709;28;20442;-34
2022/09/06 21:00:44;;;;;;;9.98;3.65;;;28.10;56.70;;;;;;10441750;28;20413;-34
2022/09/06 21:05:48;;;;;;;7.70;2.10;;;26.70;59.90;;;;;;10443303;28;20137;-34
2022/09/06 21:10:58;;;;;;;7.03;1.52;;;26.60;60.30;;;;;;10440783;28;20059;-33
2022/09/06 21:16:00;;;;;;;7.30;2.50;;;27.20;59.20;;;;;;10452011;28;20118;-33
2022/09/06 21:21:05;;;;;;;8.32;2.42;;;26.50;60.20;;;;;;10444857;28;20132;-32
2022/09/06 21:26:09;;;;;;;9.68;2.35;;;25.00;64.60;;;;;;10429771;28;20095;-33
2022/09/06 21:31:13;;;;;;;5.20;1.80;;;26.40;62.90;;;;;;10437320;28;20049;-34
2022/09/06 21:36:18;;;;;;;7.75;2.03;;;26.40;61.20;;;;;;10445278;28;20155;-33
2022/09/06 21:41:21;;;;;;;8.80;2.92;;;26.90;61.00;;;;;;10446684;28;20128;-35
2022/09/06 21:46:25;;;;;;;3.63;1.40;;;27.50;57.80;;;;;;10419468;28;20045;-33
2022/09/06 21:51:28;;;;;;;3.67;1.65;;;28.00;56.70;;;;;;10433180;28;20446;-34
2022/09/06 21:56:30;;;;;;;5.10;1.80;;;28.40;56.00;;;;;;10445374;28;20512;-34
2022/09/06 22:01:33;;;;;;;10.85;2.22;;;27.70;57.80;;;;;;10446398;28;20168;-34
2022/09/06 22:06:37;;;;;;;3.30;1.38;;;27.10;58.90;;;;;;10446941;28;20132;-34
2022/09/06 22:11:40;;;;;;;4.90;1.60;;;26.90;59.60;;;;;;10452510;28;20581;-33
2022/09/06 22:16:42;;;;;;;7.57;1.50;;;27.80;57.30;;;;;;10455120;28;20053;-32
2022/09/06 22:21:45;;;;;;;4.45;1.40;;;28.10;56.60;;;;;;10454595;28;20522;-34
2022/09/06 22:26:47;;;;;;;5.15;1.70;;;28.20;56.10;;;;;;10463010;28;20049;-34
2022/09/06 22:31:49;;;;;;;7.70;1.55;;;28.20;56.10;;;;;;10449403;28;20120;-33
2022/09/06 22:36:52;;;;;;;3.40;1.50;;;28.30;56.00;;;;;;10467076;28;20049;-33
2022/09/06 22:41:54;;;;;;;4.72;1.50;;;28.30;56.00;;;;;;10444660;28;20072;-34
2022/09/06 22:46:56;;;;;;;3.60;1.20;;;28.30;56.00;;;;;;10446980;28;20485;-34
2022/09/06 22:51:59;;;;;;;4.53;1.20;;;28.30;56.60;;;;;;10440011;28;20049;-34
2022/09/06 22:57:01;;;;;;;5.50;1.73;;;28.20;56.00;;;;;;10454254;28;20412;-33
2022/09/06 23:02:03;;;;;;;5.00;1.50;;;28.20;56.00;;;;;;10458209;28;20860;-34
2022/09/06 23:07:06;;;;;;;4.32;1.20;;;28.20;56.10;;;;;;10447115;28;20135;-33
2022/09/06 23:12:08;;;;;;;4.70;1.40;;;28.20;56.20;;;;;;10451360;28;20098;-34
2022/09/06 23:17:12;;;;;;;5.32;1.58;;;28.20;56.20;;;;;;10441262;28;20128;-33
2022/09/06 23:22:16;;;;;;;4.43;1.15;;;28.10;56.10;;;;;;10454082;28;20064;-33
2022/09/06 23:27:18;;;;;;;4.55;1.35;;;28.10;56.20;;;;;;10449159;28;20138;-33
2022/09/06 23:32:20;;;;;;;4.70;1.33;;;28.10;56.20;;;;;;10452081;28;20041;-34
2022/09/06 23:37:23;;;;;;;2.70;1.00;;;28.10;56.20;;;;;;10449417;28;20041;-34
2022/09/06 23:42:25;;;;;;;4.95;1.20;;;28.00;56.20;;;;;;10446334;28;20124;-33
2022/09/06 23:47:27;;;;;;;4.68;1.20;;;28.00;56.20;;;;;;10441494;28;20152;-33
2022/09/06 23:52:30;;;;;;;4.65;1.23;;;28.00;56.40;;;;;;10409861;28;20042;-33
2022/09/06 23:57:32;;;;;;;3.72;1.20;;;28.00;56.40;;;;;;10418997;28;20088;-33
